Time;durP1;ratioP1;P1;durP2;ratioP2;P2;SDS_P1;SDS_P2;PMS_P1;PMS_P2;Temp;Humidity;BMP_temperature;BMP_pressure;BME280_temperature;BME280_humidity;BME280_pressure;Samples;Min_cycle;Max_cycle;Signal;HPM_P1;HPM_P2
2022/08/23 00:00:00;;;;;;;4.90;1.73;;;20.90;99.90;;;;;;4867002;29;20345;-57
2022/08/23 00:02:36;;;;;;;3.93;1.73;;;20.90;99.90;;;;;;4865739;29;20753;-56
2022/08/23 00:05:07;;;;;;;3.43;1.67;;;20.80;99.90;;;;;;4867320;29;20236;-58
2022/08/23 00:07:38;;;;;;;2.90;1.60;;;20.80;99.90;;;;;;4867148;29;20269;-58
2022/08/23 00:10:08;;;;;;;3.43;1.80;;;20.80;99.90;;;;;;4866103;29;20241;-58
2022/08/23 00:12:37;;;;;;;2.67;1.50;;;20.80;99.90;;;;;;4868232;29;20733;-58
2022/08/23 00:15:07;;;;;;;3.40;1.90;;;20.80;99.90;;;;;;4865455;29;20324;-58
2022/08/23 00:17:38;;;;;;;3.80;1.70;;;20.80;99.90;;;;;;4867493;29;20249;-56
2022/08/23 00:20:10;;;;;;;6.10;1.80;;;20.80;99.90;;;;;;4866636;29;20698;-58
2022/08/23 00:22:39;;;;;;;4.00;1.60;;;20.80;99.90;;;;;;4867178;29;20234;-55
2022/08/23 00:25:09;;;;;;;5.83;2.00;;;20.80;99.90;;;;;;4867230;29;20236;-58
2022/08/23 00:27:38;;;;;;;4.20;1.90;;;20.70;99.90;;;;;;4868016;29;20241;-58
2022/08/23 00:30:11;;;;;;;4.33;1.80;;;20.80;99.90;;;;;;4866147;29;20218;-58
2022/08/23 00:32:41;;;;;;;2.30;1.50;;;20.70;99.90;;;;;;4868137;29;20834;-58
2022/08/23 00:35:11;;;;;;;3.53;1.60;;;20.70;99.90;;;;;;4868565;29;20264;-59
2022/08/23 00:37:49;;;;;;;5.23;1.80;;;20.70;99.90;;;;;;4867649;29;20234;-55
2022/08/23 00:40:37;;;;;;;3.17;1.80;;;20.60;99.90;;;;;;4848728;29;20230;-58
2022/08/23 00:48:50;;;;;;;2.43;1.80;;;20.60;99.90;;;;;;4862315;29;20241;-55
2022/08/23 00:51:21;;;;;;;6.17;2.00;;;20.50;99.90;;;;;;4867732;29;20348;-57
2022/08/23 00:53:54;;;;;;;3.93;2.10;;;20.60;99.90;;;;;;4866542;29;21114;-56
2022/08/23 00:56:25;;;;;;;3.83;1.80;;;20.60;99.90;;;;;;4862465;29;20778;-58
2022/08/23 00:58:57;;;;;;;2.70;1.70;;;20.60;99.90;;;;;;4859829;29;20251;-56
2022/08/23 01:01:26;;;;;;;3.83;1.80;;;20.50;99.90;;;;;;4847014;29;20782;-54
2022/08/23 01:03:58;;;;;;;4.97;1.80;;;20.50;99.90;;;;;;4866295;29;20245;-57
2022/08/23 01:06:37;;;;;;;3.57;1.93;;;20.50;99.90;;;;;;4868041;29;20240;-58
2022/08/23 01:09:08;;;;;;;3.50;1.87;;;20.50;99.90;;;;;;4866295;29;20717;-58
2022/08/23 01:11:40;;;;;;;3.60;1.90;;;20.50;99.90;;;;;;4868456;29;20233;-58
2022/08/23 01:14:13;;;;;;;2.90;1.80;;;20.50;99.90;;;;;;4868602;29;20324;-55
2022/08/23 01:16:48;;;;;;;4.97;1.90;;;20.50;99.90;;;;;;4868359;29;20245;-55
2022/08/23 01:19:25;;;;;;;2.07;1.77;;;20.50;99.90;;;;;;4862050;29;20345;-57
2022/08/23 01:22:04;;;;;;;4.33;2.00;;;20.50;99.90;;;;;;4839306;29;20238;-58
2022/08/23 01:24:35;;;;;;;3.30;2.03;;;20.50;99.90;;;;;;4865479;29;20233;-57
2022/08/23 01:27:24;;;;;;;5.37;2.30;;;20.50;99.90;;;;;;4848590;29;20229;-58
2022/08/23 01:29:53;;;;;;;2.87;2.10;;;20.50;99.90;;;;;;4863524;29;20728;-58
2022/08/23 01:32:21;;;;;;;2.57;1.87;;;20.50;99.90;;;;;;4845570;29;20277;-54
2022/08/23 01:34:49;;;;;;;5.60;2.20;;;20.50;99.90;;;;;;4849983;29;20567;-58
2022/08/23 01:37:20;;;;;;;7.13;2.27;;;20.50;99.90;;;;;;4849747;29;20238;-58
2022/08/23 01:39:51;;;;;;;5.00;1.80;;;20.50;99.90;;;;;;4848108;29;20710;-59
2022/08/23 01:42:20;;;;;;;3.37;2.00;;;20.40;99.90;;;;;;4871979;29;20233;-57
2022/08/23 01:44:48;;;;;;;7.43;2.20;;;20.50;99.90;;;;;;4868826;29;20237;-59
2022/08/23 01:47:17;;;;;;;2.87;1.90;;;20.40;99.90;;;;;;4844825;29;20262;-59
2022/08/23 01:49:46;;;;;;;3.97;1.93;;;20.40;99.90;;;;;;4847343;29;20306;-56
2022/08/23 01:52:16;;;;;;;4.90;2.40;;;20.40;99.90;;;;;;4868112;29;20349;-55
2022/08/23 01:54:44;;;;;;;4.43;2.00;;;20.40;99.90;;;;;;4848778;29;20331;-56
2022/08/23 01:57:13;;;;;;;3.33;2.00;;;20.40;99.90;;;;;;4863951;29;20319;-57
2022/08/23 01:59:43;;;;;;;3.97;1.90;;;20.40;99.90;;;;;;4851009;29;20248;-57
2022/08/23 02:02:11;;;;;;;3.57;2.03;;;20.40;99.90;;;;;;4852992;29;20261;-57
2022/08/23 02:04:39;;;;;;;4.20;2.13;;;20.40;99.90;;;;;;4866590;29;20241;-57
2022/08/23 02:07:08;;;;;;;5.10;1.93;;;20.40;99.90;;;;;;4844430;29;20699;-58
2022/08/23 02:09:37;;;;;;;3.67;2.30;;;20.40;99.90;;;;;;4847791;29;20729;-58
2022/08/23 02:12:05;;;;;;;1.97;1.67;;;20.40;99.90;;;;;;4839921;29;20333;-57
2022/08/23 02:14:40;;;;;;;3.30;2.07;;;20.40;99.90;;;;;;4848159;29;20273;-57
2022/08/23 02:17:16;;;;;;;4.47;2.00;;;20.40;99.90;;;;;;4847236;29;20268;-57
2022/08/23 02:19:45;;;;;;;3.83;2.00;;;20.40;99.90;;;;;;4867886;29;20275;-55
2022/08/23 02:22:13;;;;;;;3.10;2.17;;;20.40;99.90;;;;;;4849830;29;20727;-57
2022/08/23 02:24:44;;;;;;;4.77;2.00;;;20.30;99.90;;;;;;4868170;29;20241;-57
2022/08/23 02:27:14;;;;;;;5.17;2.30;;;20.30;99.90;;;;;;4867595;29;20809;-57
2022/08/23 02:29:45;;;;;;;2.77;2.10;;;20.30;99.90;;;;;;4847286;29;20251;-56
2022/08/23 02:32:16;;;;;;;4.67;2.57;;;20.30;99.90;;;;;;4861410;29;20795;-57
2022/08/23 02:34:45;;;;;;;4.30;2.23;;;20.30;99.90;;;;;;4848840;29;20238;-57
2022/08/23 02:37:33;;;;;;;3.33;2.27;;;20.30;99.90;;;;;;4846823;29;20255;-57
2022/08/23 02:40:02;;;;;;;4.73;2.00;;;20.30;99.90;;;;;;4845722;29;20247;-58
2022/08/23 02:42:30;;;;;;;3.63;2.00;;;20.20;99.90;;;;;;4845343;29;20237;-58
2022/08/23 02:45:01;;;;;;;4.53;2.13;;;20.20;99.90;;;;;;4850161;29;20241;-58
2022/08/23 02:47:32;;;;;;;3.60;2.07;;;20.20;99.90;;;;;;4849682;29;20241;-58
2022/08/23 02:50:13;;;;;;;4.00;2.17;;;20.20;99.90;;;;;;4847570;29;20245;-56
2022/08/23 02:52:43;;;;;;;4.13;2.30;;;20.10;99.90;;;;;;4853116;29;20242;-57
2022/08/23 02:55:11;;;;;;;4.10;1.90;;;20.10;99.90;;;;;;4867687;29;20243;-57
2022/08/23 02:57:40;;;;;;;3.90;2.13;;;20.10;99.90;;;;;;4868259;29;20245;-55
2022/08/23 03:00:14;;;;;;;4.53;2.00;;;20.10;99.90;;;;;;4850744;29;20847;-54
2022/08/23 03:02:42;;;;;;;4.43;2.07;;;20.00;99.90;;;;;;4863589;29;20237;-58
2022/08/23 03:05:12;;;;;;;2.97;1.90;;;20.00;99.90;;;;;;4847477;29;20249;-58
2022/08/23 03:07:40;;;;;;;6.40;2.00;;;20.00;99.90;;;;;;4843259;29;20294;-57
2022/08/23 03:10:10;;;;;;;3.63;2.20;;;20.00;99.90;;;;;;4844592;29;20248;-58
2022/08/23 03:12:44;;;;;;;2.97;2.17;;;19.90;99.90;;;;;;4848937;29;20293;-57
2022/08/23 03:15:13;;;;;;;3.20;2.27;;;19.90;99.90;;;;;;4848312;29;20244;-54
2022/08/23 03:17:42;;;;;;;3.20;1.97;;;19.80;99.90;;;;;;4848164;29;20250;-55
2022/08/23 03:20:11;;;;;;;5.30;2.03;;;19.80;99.90;;;;;;4846681;29;20685;-57
2022/08/23 03:22:39;;;;;;;4.87;2.33;;;19.80;99.90;;;;;;4849802;29;20709;-58
2022/08/23 03:25:17;;;;;;;4.70;2.20;;;19.70;99.90;;;;;;4864550;29;21157;-55
2022/08/23 03:28:06;;;;;;;2.70;1.80;;;19.70;99.90;;;;;;4863315;29;20241;-57
2022/08/23 03:30:38;;;;;;;3.10;2.27;;;19.70;99.90;;;;;;4848873;29;20245;-57
2022/08/23 03:33:08;;;;;;;4.07;2.10;;;19.70;99.90;;;;;;4847194;29;20243;-58
2022/08/23 03:35:36;;;;;;;2.33;2.00;;;19.70;99.90;;;;;;4846627;29;20252;-56
2022/08/23 03:38:04;;;;;;;2.57;2.07;;;19.60;99.90;;;;;;4843968;29;20241;-53
2022/08/23 03:40:34;;;;;;;4.07;2.20;;;19.60;99.90;;;;;;4849741;29;20881;-56
2022/08/23 03:43:04;;;;;;;4.43;2.20;;;19.50;99.90;;;;;;4850639;29;20241;-58
2022/08/23 03:45:33;;;;;;;3.87;2.17;;;19.50;99.90;;;;;;4846681;29;20248;-57
2022/08/23 03:48:03;;;;;;;5.00;2.67;;;19.50;99.90;;;;;;4846495;29;20237;-55
2022/08/23 03:50:34;;;;;;;2.43;2.00;;;19.40;99.90;;;;;;4848035;29;21359;-57
2022/08/23 03:53:02;;;;;;;3.10;2.13;;;19.40;99.90;;;;;;4849173;29;20313;-59
2022/08/23 03:55:30;;;;;;;3.47;2.33;;;19.40;99.90;;;;;;4847151;29;20722;-57
2022/08/23 03:58:00;;;;;;;3.03;2.00;;;19.40;99.90;;;;;;4843595;29;20716;-59
2022/08/23 04:00:28;;;;;;;4.07;2.23;;;19.30;99.90;;;;;;4845580;29;20250;-57
2022/08/23 04:02:56;;;;;;;3.60;2.50;;;19.30;99.90;;;;;;4865770;29;20225;-56
2022/08/23 04:05:28;;;;;;;5.13;2.30;;;19.30;99.90;;;;;;4850424;29;20244;-55
2022/08/23 04:08:01;;;;;;;3.67;2.23;;;19.30;99.90;;;;;;4846392;29;20713;-58
2022/08/23 04:10:29;;;;;;;3.37;2.40;;;19.20;99.90;;;;;;4847596;29;20779;-55
2022/08/23 04:12:58;;;;;;;4.47;2.37;;;19.20;99.90;;;;;;4865603;29;20250;-55
2022/08/23 04:15:26;;;;;;;3.20;2.17;;;19.20;99.90;;;;;;4847972;29;20919;-57
2022/08/23 04:17:54;;;;;;;3.77;2.13;;;19.20;99.90;;;;;;4845612;29;20730;-57
2022/08/23 04:20:23;;;;;;;7.37;2.43;;;19.20;99.90;;;;;;4864223;29;20245;-55
2022/08/23 04:22:58;;;;;;;4.33;2.17;;;19.10;99.90;;;;;;4865475;29;20276;-58
2022/08/23 04:25:32;;;;;;;5.50;2.60;;;19.10;99.90;;;;;;4848489;29;20236;-58
2022/08/23 04:28:04;;;;;;;4.73;2.47;;;19.10;99.90;;;;;;4846518;29;21332;-57
2022/08/23 04:30:33;;;;;;;5.60;2.53;;;19.10;99.90;;;;;;4845997;29;20666;-56
2022/08/23 04:33:03;;;;;;;5.07;2.77;;;19.00;99.90;;;;;;4848525;29;20703;-55
2022/08/23 04:35:40;;;;;;;3.90;2.10;;;19.00;99.90;;;;;;4865984;29;20235;-56
2022/08/23 04:38:10;;;;;;;3.50;2.30;;;19.00;99.90;;;;;;4844594;29;20232;-58
2022/08/23 04:43:41;;;;;;;4.20;2.30;;;19.00;99.90;;;;;;4848765;29;20247;-57
2022/08/23 04:46:14;;;;;;;3.73;2.43;;;19.00;99.90;;;;;;4833697;29;20293;-58
2022/08/23 04:48:44;;;;;;;5.73;2.87;;;19.00;99.90;;;;;;4847448;29;20764;-56
2022/08/23 04:51:13;;;;;;;5.43;2.30;;;19.10;99.90;;;;;;4840570;29;20329;-59
2022/08/23 04:53:43;;;;;;;4.97;2.30;;;19.10;99.90;;;;;;4847678;29;20240;-59
2022/08/23 04:56:30;;;;;;;8.70;3.10;;;19.10;99.90;;;;;;4870451;29;20248;-58
2022/08/23 04:58:59;;;;;;;6.33;2.57;;;19.10;99.90;;;;;;4849994;29;20295;-55
2022/08/23 05:01:28;;;;;;;19.87;3.90;;;19.10;99.90;;;;;;4864240;29;20505;-58
2022/08/23 05:03:56;;;;;;;10.57;3.00;;;19.20;99.90;;;;;;4850600;29;20613;-57
2022/08/23 05:06:27;;;;;;;8.03;3.33;;;19.30;99.90;;;;;;4850470;29;20340;-56
2022/08/23 05:08:57;;;;;;;5.33;2.90;;;19.30;99.90;;;;;;4848580;29;20332;-58
2022/08/23 05:11:25;;;;;;;8.90;3.00;;;19.30;99.90;;;;;;4872510;29;20262;-58
2022/08/23 05:13:53;;;;;;;4.00;2.77;;;19.30;99.90;;;;;;4867124;29;20236;-58
2022/08/23 05:16:23;;;;;;;6.93;2.73;;;19.30;99.90;;;;;;4847642;29;20711;-57
2022/08/23 05:19:01;;;;;;;4.07;2.37;;;19.30;99.90;;;;;;4866269;29;20304;-55
2022/08/23 05:21:32;;;;;;;4.67;2.40;;;19.30;99.90;;;;;;4847558;29;20619;-57
2022/08/23 05:24:03;;;;;;;4.20;2.40;;;19.30;99.90;;;;;;4855214;29;20233;-54
2022/08/23 05:26:32;;;;;;;4.87;2.80;;;19.50;99.90;;;;;;4860397;29;20324;-55
2022/08/23 05:29:00;;;;;;;3.27;2.20;;;19.50;99.90;;;;;;4865213;29;20246;-56
2022/08/23 05:31:34;;;;;;;4.33;2.60;;;19.60;99.90;;;;;;4839769;29;20256;-56
2022/08/23 05:34:03;;;;;;;5.40;2.40;;;19.70;99.90;;;;;;4843090;29;20232;-56
2022/08/23 05:36:52;;;;;;;5.83;2.60;;;19.80;99.90;;;;;;4858377;29;20240;-55
2022/08/23 05:39:27;;;;;;;3.43;2.70;;;20.00;99.90;;;;;;4853742;29;20244;-58
2022/08/23 05:42:07;;;;;;;5.07;2.83;;;20.00;99.90;;;;;;4869263;29;20237;-58
2022/08/23 05:44:36;;;;;;;4.27;2.53;;;20.10;99.90;;;;;;4871282;29;20582;-57
2022/08/23 05:47:07;;;;;;;5.20;2.57;;;20.30;99.90;;;;;;4853385;29;20237;-57
2022/08/23 05:49:48;;;;;;;3.90;2.70;;;20.30;99.90;;;;;;4850667;29;20252;-56
2022/08/23 05:52:16;;;;;;;4.27;2.80;;;20.40;99.90;;;;;;4859494;29;20360;-54
2022/08/23 05:54:45;;;;;;;3.53;2.60;;;20.60;99.90;;;;;;4856570;29;20273;-57
2022/08/23 05:57:44;;;;;;;5.30;2.70;;;20.70;99.90;;;;;;4848678;29;20227;-57
2022/08/23 06:00:14;;;;;;;6.40;2.60;;;20.90;99.90;;;;;;4871687;29;20731;-58
2022/08/23 06:02:52;;;;;;;4.13;2.50;;;21.00;99.90;;;;;;4849434;29;20244;-58
2022/08/23 06:05:21;;;;;;;5.93;2.40;;;21.30;99.90;;;;;;4854616;29;20230;-58
2022/08/23 06:07:50;;;;;;;3.90;2.50;;;21.50;99.90;;;;;;4848530;29;20234;-57
2022/08/23 06:10:22;;;;;;;4.10;2.50;;;21.60;99.90;;;;;;4848923;29;20237;-58
2022/08/23 06:12:56;;;;;;;4.43;2.40;;;21.80;99.90;;;;;;4867399;29;20288;-56
2022/08/23 06:15:25;;;;;;;4.93;2.60;;;21.80;99.90;;;;;;4851039;29;20372;-57
2022/08/23 06:17:53;;;;;;;6.03;2.37;;;21.80;99.90;;;;;;4850880;29;20277;-58
2022/08/23 06:20:21;;;;;;;5.07;2.63;;;21.80;99.90;;;;;;4849018;29;20717;-58
2022/08/23 06:23:06;;;;;;;2.80;2.30;;;21.70;99.90;;;;;;4849628;29;20256;-55
2022/08/23 06:25:37;;;;;;;4.33;2.30;;;21.70;99.90;;;;;;4849408;29;20310;-57
2022/08/23 06:28:10;;;;;;;3.00;2.40;;;21.60;99.90;;;;;;4845300;29;20361;-58
2022/08/23 06:30:39;;;;;;;5.60;2.37;;;21.60;99.90;;;;;;4849994;29;20245;-57
2022/08/23 06:33:16;;;;;;;3.77;2.30;;;21.60;99.90;;;;;;4849154;29;20325;-58
2022/08/23 06:35:47;;;;;;;7.33;2.63;;;21.50;99.90;;;;;;4869106;29;20249;-57
2022/08/23 06:38:35;;;;;;;4.30;2.40;;;21.50;99.90;;;;;;4849531;29;20262;-58
2022/08/23 06:41:27;;;;;;;4.87;2.50;;;21.40;99.90;;;;;;4860524;29;20234;-56
2022/08/23 06:44:19;;;;;;;5.70;2.33;;;21.40;99.90;;;;;;4862116;29;20298;-58
2022/08/23 06:46:56;;;;;;;4.70;3.00;;;21.50;99.90;;;;;;4849413;29;20600;-56
2022/08/23 06:49:26;;;;;;;3.70;2.63;;;21.60;99.90;;;;;;4846831;29;20752;-57
2022/08/23 06:52:00;;;;;;;3.67;2.60;;;21.70;99.90;;;;;;4867139;29;20305;-56
2022/08/23 06:54:49;;;;;;;8.27;2.77;;;21.80;99.90;;;;;;4859827;29;20605;-56
2022/08/23 06:57:37;;;;;;;4.47;2.30;;;21.90;99.90;;;;;;4872628;29;20325;-58
2022/08/23 07:00:25;;;;;;;5.40;2.50;;;22.00;99.90;;;;;;4849958;29;20245;-56
2022/08/23 07:03:10;;;;;;;4.93;2.30;;;22.10;99.90;;;;;;4847650;29;20241;-57
2022/08/23 07:05:57;;;;;;;3.40;2.30;;;22.50;99.90;;;;;;4870245;29;20305;-56
2022/08/23 07:08:28;;;;;;;5.20;2.77;;;22.70;99.90;;;;;;4867314;29;20775;-56
2022/08/23 07:10:56;;;;;;;4.77;2.80;;;22.80;99.90;;;;;;4869516;29;20269;-55
2022/08/23 07:13:26;;;;;;;3.47;2.30;;;22.80;99.90;;;;;;4858187;29;20246;-56
2022/08/23 07:15:58;;;;;;;3.90;2.30;;;23.00;99.90;;;;;;4844998;29;20675;-56
2022/08/23 07:18:27;;;;;;;3.50;2.27;;;23.40;99.90;;;;;;4847341;29;20273;-57
2022/08/23 07:20:58;;;;;;;3.40;2.10;;;23.60;99.90;;;;;;4848066;29;20833;-58
2022/08/23 07:23:26;;;;;;;5.03;2.50;;;23.90;99.90;;;;;;4866564;29;20257;-58
2022/08/23 07:25:56;;;;;;;5.67;2.33;;;24.10;99.90;;;;;;4865485;29;20306;-57
2022/08/23 07:28:29;;;;;;;7.23;2.30;;;24.30;99.90;;;;;;4864784;29;20249;-58
2022/08/23 07:31:09;;;;;;;2.87;2.23;;;24.40;99.90;;;;;;4850498;29;20344;-56
2022/08/23 07:33:42;;;;;;;7.07;2.23;;;24.60;99.90;;;;;;4851883;29;20233;-58
2022/08/23 07:36:17;;;;;;;4.70;2.20;;;24.80;99.90;;;;;;4847238;29;20242;-57
2022/08/23 07:38:46;;;;;;;3.43;2.20;;;25.00;99.90;;;;;;4843334;29;20248;-57
2022/08/23 07:41:16;;;;;;;6.03;2.23;;;25.10;99.90;;;;;;4845565;29;20247;-56
2022/08/23 07:43:46;;;;;;;5.93;2.07;;;25.00;99.90;;;;;;4846243;29;20235;-57
2022/08/23 07:46:15;;;;;;;3.00;2.20;;;25.10;99.90;;;;;;4849874;29;20242;-57
2022/08/23 07:48:44;;;;;;;4.77;2.03;;;25.40;99.90;;;;;;4867070;29;20238;-56
2022/08/23 07:51:39;;;;;;;3.43;2.00;;;25.60;99.90;;;;;;4867430;29;20243;-58
2022/08/23 07:54:10;;;;;;;4.13;2.10;;;25.70;99.90;;;;;;4865548;29;20242;-56
2022/08/23 07:56:48;;;;;;;4.67;1.80;;;25.90;99.90;;;;;;4871899;29;20243;-59
2022/08/23 07:59:40;;;;;;;3.43;2.47;;;25.90;99.90;;;;;;4862699;29;20246;-58
2022/08/23 08:02:22;;;;;;;4.67;1.87;;;25.90;99.90;;;;;;4874929;29;20239;-56
2022/08/23 08:04:51;;;;;;;3.93;2.00;;;26.00;99.90;;;;;;4876556;29;20614;-57
2022/08/23 08:07:20;;;;;;;3.33;1.80;;;26.20;99.90;;;;;;4869649;29;20237;-58
2022/08/23 08:09:57;;;;;;;2.50;2.03;;;26.40;99.90;;;;;;4846892;29;20292;-58
2022/08/23 08:12:26;;;;;;;3.23;2.00;;;26.70;99.90;;;;;;4848788;29;20586;-56
2022/08/23 08:14:58;;;;;;;2.90;2.00;;;26.70;99.90;;;;;;4850368;29;20252;-57
2022/08/23 08:17:34;;;;;;;5.43;2.07;;;26.50;99.90;;;;;;4866395;29;20249;-56
2022/08/23 08:20:29;;;;;;;2.60;2.00;;;26.60;99.90;;;;;;4867731;29;20605;-57
2022/08/23 08:23:18;;;;;;;4.40;2.03;;;26.60;99.90;;;;;;4866294;29;20237;-57
2022/08/23 08:26:08;;;;;;;4.07;1.90;;;26.80;99.90;;;;;;4867471;29;20227;-57
2022/08/23 08:28:37;;;;;;;3.00;1.90;;;27.00;99.90;;;;;;4844383;29;20317;-58
2022/08/23 08:31:08;;;;;;;5.07;2.10;;;27.20;99.90;;;;;;4848636;29;20606;-58
2022/08/23 08:33:36;;;;;;;2.87;1.97;;;27.20;99.90;;;;;;4856785;29;20740;-56
2022/08/23 08:36:06;;;;;;;2.70;1.73;;;27.30;99.90;;;;;;4857528;29;20254;-58
2022/08/23 08:38:38;;;;;;;3.23;1.70;;;27.40;99.90;;;;;;4873694;29;20729;-58
2022/08/23 08:41:28;;;;;;;4.97;1.90;;;27.40;99.90;;;;;;4850217;29;20243;-58
2022/08/23 08:44:08;;;;;;;3.03;1.60;;;27.40;99.90;;;;;;4855501;29;20247;-56
2022/08/23 08:46:43;;;;;;;3.73;1.60;;;27.70;99.90;;;;;;4872340;29;20751;-58
2022/08/23 08:49:17;;;;;;;2.20;1.23;;;27.80;99.90;;;;;;4861009;29;20247;-56
2022/08/23 08:51:50;;;;;;;2.87;1.50;;;27.70;99.90;;;;;;4861862;29;20244;-57
2022/08/23 08:54:22;;;;;;;4.87;1.40;;;27.90;99.90;;;;;;4883938;29;20804;-58
2022/08/23 08:56:55;;;;;;;4.47;1.27;;;27.80;99.90;;;;;;4860816;29;20813;-57
2022/08/23 08:59:28;;;;;;;2.83;1.37;;;28.00;99.90;;;;;;4871516;29;20219;-58
2022/08/23 09:01:59;;;;;;;2.40;1.20;;;28.20;99.90;;;;;;4851112;29;20661;-58
2022/08/23 09:04:36;;;;;;;1.60;1.20;;;28.30;99.50;;;;;;4850013;29;20242;-56
2022/08/23 09:07:15;;;;;;;3.90;1.10;;;28.20;99.30;;;;;;4849948;29;20255;-57
2022/08/23 09:10:03;;;;;;;3.43;1.33;;;28.40;99.40;;;;;;4867890;29;20230;-57
2022/08/23 09:12:40;;;;;;;2.93;1.30;;;28.50;98.70;;;;;;4851378;29;20245;-58
2022/08/23 09:15:20;;;;;;;3.20;1.30;;;28.60;98.80;;;;;;4857708;29;20248;-58
2022/08/23 09:17:53;;;;;;;2.13;1.37;;;28.80;98.80;;;;;;4859604;29;20296;-57
2022/08/23 09:20:28;;;;;;;3.03;1.50;;;29.00;98.60;;;;;;4879366;29;20239;-57
2022/08/23 09:23:07;;;;;;;3.20;1.40;;;29.20;98.80;;;;;;4861101;29;20247;-57
2022/08/23 09:25:37;;;;;;;3.07;1.37;;;29.20;98.50;;;;;;4853664;29;20272;-57
2022/08/23 09:28:15;;;;;;;1.63;1.20;;;28.80;97.70;;;;;;4851851;29;21272;-57
2022/08/23 09:30:50;;;;;;;2.53;1.17;;;28.90;98.10;;;;;;4854210;29;20245;-58
2022/08/23 09:33:24;;;;;;;2.97;1.20;;;29.20;97.40;;;;;;4849104;29;20276;-58
2022/08/23 09:36:13;;;;;;;2.47;1.30;;;29.20;97.10;;;;;;4852852;29;20280;-57
2022/08/23 09:38:52;;;;;;;1.70;1.10;;;29.40;97.20;;;;;;4862621;29;20239;-57
2022/08/23 09:41:26;;;;;;;3.13;1.13;;;29.60;96.90;;;;;;4877757;29;20253;-57
2022/08/23 09:44:00;;;;;;;3.77;1.40;;;30.00;97.20;;;;;;4877461;29;20236;-57
2022/08/23 09:46:31;;;;;;;3.53;1.40;;;30.10;96.70;;;;;;4861643;29;20239;-58
2022/08/23 09:49:23;;;;;;;3.70;1.70;;;29.80;96.00;;;;;;4871875;29;20325;-58
2022/08/23 09:51:55;;;;;;;4.13;1.50;;;29.70;96.30;;;;;;4877272;29;20240;-57
2022/08/23 09:54:29;;;;;;;2.37;1.30;;;29.80;96.30;;;;;;4861201;29;20234;-57
2022/08/23 09:57:01;;;;;;;7.10;1.50;;;29.90;95.90;;;;;;4866420;29;20245;-58
2022/08/23 09:59:40;;;;;;;3.67;1.53;;;30.00;95.90;;;;;;4868301;29;20234;-57
2022/08/23 10:02:17;;;;;;;2.23;1.40;;;30.00;96.00;;;;;;4851965;29;20237;-59
2022/08/23 10:04:59;;;;;;;2.43;1.50;;;30.30;96.50;;;;;;4851175;29;20299;-59
2022/08/23 10:07:34;;;;;;;3.63;1.70;;;30.90;96.50;;;;;;4866732;29;20225;-58
2022/08/23 10:10:32;;;;;;;3.97;1.70;;;31.20;96.00;;;;;;4868203;29;20236;-57
2022/08/23 10:13:05;;;;;;;3.13;1.83;;;31.30;95.90;;;;;;4829531;29;20238;-59
2022/08/23 10:15:48;;;;;;;3.83;1.90;;;31.30;95.50;;;;;;4850512;29;20314;-58
2022/08/23 10:18:28;;;;;;;6.43;1.90;;;30.90;95.20;;;;;;4847453;29;20262;-59
2022/08/23 10:21:04;;;;;;;4.73;1.93;;;30.60;95.70;;;;;;4848274;29;20226;-57
2022/08/23 10:23:43;;;;;;;1.90;1.70;;;30.70;96.00;;;;;;4849047;29;20794;-58
2022/08/23 10:26:21;;;;;;;2.70;1.73;;;31.00;96.10;;;;;;4864625;29;20710;-58
2022/08/23 10:31:47;;;;;;;4.97;2.20;;;31.40;95.00;;;;;;4866410;29;20274;-58
2022/08/23 10:34:38;;;;;;;5.50;2.10;;;31.30;94.70;;;;;;4849222;29;20329;-59
2022/08/23 10:37:26;;;;;;;5.17;1.97;;;31.40;94.40;;;;;;4852190;29;20327;-59
2022/08/23 10:40:00;;;;;;;5.03;1.80;;;31.10;94.20;;;;;;4852589;29;20309;-59
2022/08/23 10:42:43;;;;;;;3.60;1.60;;;31.30;94.20;;;;;;4845893;29;20708;-57
2022/08/23 10:45:19;;;;;;;2.63;1.90;;;31.60;94.40;;;;;;4856300;29;20318;-57
2022/08/23 10:48:00;;;;;;;4.23;1.70;;;31.70;94.10;;;;;;4863220;29;20258;-58
2022/08/23 10:50:36;;;;;;;1.93;1.57;;;31.50;93.10;;;;;;4851837;29;20664;-59
2022/08/23 10:53:11;;;;;;;4.10;1.70;;;31.20;93.10;;;;;;4873893;29;20239;-59
2022/08/23 10:55:53;;;;;;;3.97;1.50;;;31.40;92.80;;;;;;4851675;29;20238;-55
2022/08/23 10:58:27;;;;;;;3.20;1.63;;;31.50;92.90;;;;;;4865745;29;20229;-59
2022/08/23 11:01:00;;;;;;;2.73;1.60;;;31.50;92.80;;;;;;4866076;29;20265;-58
2022/08/23 11:03:30;;;;;;;3.90;1.77;;;31.20;92.20;;;;;;4848251;29;20267;-58
2022/08/23 11:06:23;;;;;;;3.40;1.67;;;31.10;92.60;;;;;;4847257;29;20654;-57
2022/08/23 11:09:00;;;;;;;2.50;1.40;;;31.20;92.30;;;;;;4844479;29;20237;-59
2022/08/23 11:11:43;;;;;;;3.77;1.73;;;31.20;91.70;;;;;;4846697;29;20754;-58
2022/08/23 11:14:24;;;;;;;4.67;1.70;;;30.90;91.70;;;;;;4845731;29;20321;-58
2022/08/23 11:16:58;;;;;;;5.47;1.80;;;30.90;92.20;;;;;;4869470;29;20240;-59
2022/08/23 11:19:50;;;;;;;2.90;1.57;;;31.10;92.20;;;;;;4846082;29;20257;-59
2022/08/23 11:22:21;;;;;;;4.40;1.50;;;31.40;92.00;;;;;;4864534;29;21078;-59
2022/08/23 11:24:58;;;;;;;2.83;1.57;;;31.30;91.50;;;;;;4874844;29;20368;-58
2022/08/23 11:27:35;;;;;;;4.67;1.70;;;31.10;91.70;;;;;;4861043;29;20244;-59
2022/08/23 11:30:40;;;;;;;4.30;1.60;;;31.30;91.80;;;;;;4849216;29;20877;-59
2022/08/23 11:33:18;;;;;;;5.57;1.50;;;31.30;91.30;;;;;;4866899;29;20247;-57
2022/08/23 11:35:49;;;;;;;2.03;1.60;;;31.20;91.40;;;;;;4867571;29;20334;-59
2022/08/23 11:38:57;;;;;;;2.60;1.60;;;31.40;91.10;;;;;;4864182;29;20231;-59
2022/08/23 11:41:28;;;;;;;3.40;1.50;;;31.80;90.50;;;;;;4852655;29;20704;-59
2022/08/23 11:44:27;;;;;;;3.30;1.40;;;31.70;90.30;;;;;;4853026;29;20242;-58
2022/08/23 11:47:00;;;;;;;2.20;1.50;;;31.60;90.20;;;;;;4855151;29;20234;-59
2022/08/23 11:50:07;;;;;;;2.77;1.47;;;31.90;90.50;;;;;;4851682;29;20610;-58
2022/08/23 11:53:02;;;;;;;5.23;1.47;;;31.90;90.00;;;;;;4871831;29;20240;-59
2022/08/23 11:56:00;;;;;;;2.43;1.40;;;31.80;89.60;;;;;;4873083;29;20229;-58
2022/08/23 11:58:52;;;;;;;8.00;1.40;;;31.70;90.20;;;;;;4873547;29;20742;-59
2022/08/23 12:01:30;;;;;;;3.37;1.50;;;31.40;89.40;;;;;;4873959;29;20262;-58
2022/08/23 12:04:08;;;;;;;7.50;1.60;;;31.20;90.50;;;;;;4872083;29;20802;-59
2022/08/23 12:06:44;;;;;;;4.03;1.20;;;31.20;90.80;;;;;;4871218;29;20241;-58
2022/08/23 12:09:51;;;;;;;2.83;1.40;;;31.30;90.60;;;;;;4862847;29;20247;-59
2022/08/23 12:12:32;;;;;;;4.43;1.50;;;31.20;90.90;;;;;;4863706;29;20237;-58
2022/08/23 12:15:10;;;;;;;2.83;1.37;;;31.30;91.50;;;;;;4866969;29;20229;-59
2022/08/23 12:18:12;;;;;;;3.83;1.40;;;31.50;90.80;;;;;;4867384;29;20250;-59
2022/08/23 12:20:47;;;;;;;5.10;1.57;;;31.40;89.30;;;;;;4869647;29;20225;-59
2022/08/23 12:23:20;;;;;;;2.57;1.13;;;31.10;90.10;;;;;;4865496;29;20250;-59
2022/08/23 12:25:59;;;;;;;3.37;1.57;;;31.00;90.30;;;;;;4865272;29;20242;-59
2022/08/23 12:28:43;;;;;;;2.40;1.40;;;30.90;90.70;;;;;;4865675;29;20253;-59
2022/08/23 12:31:23;;;;;;;4.67;1.10;;;31.00;91.00;;;;;;4864772;29;20347;-58
2022/08/23 12:34:12;;;;;;;2.40;1.40;;;30.90;90.90;;;;;;4864774;29;20593;-57
2022/08/23 12:36:48;;;;;;;3.87;1.33;;;30.90;90.50;;;;;;4867304;29;20271;-59
2022/08/23 12:39:25;;;;;;;1.87;1.10;;;30.70;91.10;;;;;;4853938;29;20603;-58
2022/08/23 12:41:57;;;;;;;4.13;1.20;;;30.80;89.50;;;;;;4868088;29;20237;-56
2022/08/23 12:44:28;;;;;;;3.80;1.20;;;30.80;89.20;;;;;;4867242;29;20239;-57
2022/08/23 12:47:13;;;;;;;2.37;1.30;;;30.60;90.50;;;;;;4871158;29;20579;-58
2022/08/23 12:49:42;;;;;;;3.13;1.47;;;30.70;89.90;;;;;;4869896;29;20245;-58
2022/08/23 12:52:12;;;;;;;4.07;1.47;;;30.50;90.20;;;;;;4871167;29;20250;-58
2022/08/23 12:54:43;;;;;;;4.73;1.60;;;30.40;89.90;;;;;;4875207;29;20240;-58
2022/08/23 12:57:15;;;;;;;1.97;1.17;;;30.40;89.90;;;;;;4865982;29;20242;-57
2022/08/23 12:59:49;;;;;;;2.90;1.40;;;30.40;90.00;;;;;;4865115;29;20237;-57
2022/08/23 13:02:25;;;;;;;4.73;1.23;;;30.30;89.40;;;;;;4866490;29;20241;-59
2022/08/23 13:04:58;;;;;;;4.27;1.50;;;30.00;88.90;;;;;;4867590;29;20245;-56
2022/08/23 13:07:26;;;;;;;2.37;1.20;;;30.00;90.00;;;;;;4865417;29;20573;-59
2022/08/23 13:09:55;;;;;;;4.10;1.43;;;30.00;90.00;;;;;;4864366;29;20238;-58
2022/08/23 13:12:23;;;;;;;2.40;1.20;;;30.00;90.20;;;;;;4864357;29;20254;-58
2022/08/23 13:14:53;;;;;;;4.43;1.00;;;30.20;90.50;;;;;;4865387;29;20243;-57
2022/08/23 13:17:35;;;;;;;4.40;1.40;;;30.30;89.90;;;;;;4867383;29;20723;-58
2022/08/23 13:20:22;;;;;;;3.07;1.40;;;30.00;88.80;;;;;;4864631;29;21747;-58
2022/08/23 13:22:59;;;;;;;4.50;1.30;;;29.90;89.70;;;;;;4854288;29;20221;-58
2022/08/23 13:25:30;;;;;;;10.07;1.73;;;29.90;89.70;;;;;;4840094;29;20238;-57
2022/08/23 13:28:01;;;;;;;3.03;1.50;;;29.90;88.80;;;;;;4847980;29;20715;-57
2022/08/23 13:30:31;;;;;;;2.20;1.27;;;29.80;89.60;;;;;;4851488;29;20694;-58
2022/08/23 13:33:22;;;;;;;2.87;1.50;;;29.90;90.00;;;;;;4850581;29;20910;-55
2022/08/23 13:36:05;;;;;;;4.00;1.50;;;29.80;90.00;;;;;;4855990;29;20290;-57